sensor_id;sensor_type;location;lat;lon;timestamp;P1;durP1;ratioP1;P2;durP2;ratioP2
61471;SDS011;47337;54.068;12.114;2023-06-10T00:00:56;8.98;;;2.10;;
61471;SDS011;47337;54.068;12.114;2023-06-10T00:03:21;10.35;;;2.00;;
61471;SDS011;47337;54.068;12.114;2023-06-10T00:05:51;8.43;;;2.22;;
61471;SDS011;47337;54.068;12.114;2023-06-10T00:08:16;7.03;;;2.40;;
61471;SDS011;47337;54.068;12.114;2023-06-10T00:10:44;4.85;;;1.83;;
61471;SDS011;47337;54.068;12.114;2023-06-10T00:13:10;4.32;;;1.80;;
61471;SDS011;47337;54.068;12.114;2023-06-10T00:15:36;4.93;;;1.48;;
61471;SDS011;47337;54.068;12.114;2023-06-10T00:18:02;4.15;;;1.63;;
61471;SDS011;47337;54.068;12.114;2023-06-10T00:20:28;4.25;;;1.55;;
61471;SDS011;47337;54.068;12.114;2023-06-10T00:22:58;5.30;;;1.85;;
61471;SDS011;47337;54.068;12.114;2023-06-10T00:25:26;4.82;;;2.17;;
61471;SDS011;47337;54.068;12.114;2023-06-10T00:27:51;8.52;;;2.50;;
61471;SDS011;47337;54.068;12.114;2023-06-10T00:30:17;4.97;;;1.90;;
61471;SDS011;47337;54.068;12.114;2023-06-10T00:32:42;5.80;;;1.63;;
61471;SDS011;47337;54.068;12.114;2023-06-10T00:35:07;5.45;;;1.70;;
61471;SDS011;47337;54.068;12.114;2023-06-10T00:37:35;8.73;;;1.88;;
61471;SDS011;47337;54.068;12.114;2023-06-10T00:40:01;6.30;;;2.45;;
61471;SDS011;47337;54.068;12.114;2023-06-10T00:42:29;8.27;;;1.92;;
61471;SDS011;47337;54.068;12.114;2023-06-10T00:44:55;7.75;;;2.20;;
61471;SDS011;47337;54.068;12.114;2023-06-10T00:47:22;5.72;;;1.80;;
61471;SDS011;47337;54.068;12.114;2023-06-10T00:49:50;4.95;;;1.77;;
61471;SDS011;47337;54.068;12.114;2023-06-10T00:52:18;6.57;;;1.88;;
61471;SDS011;47337;54.068;12.114;2023-06-10T00:54:47;6.07;;;1.92;;
61471;SDS011;47337;54.068;12.114;2023-06-10T00:57:13;9.52;;;1.77;;
61471;SDS011;47337;54.068;12.114;2023-06-10T00:59:41;5.25;;;1.98;;
61471;SDS011;47337;54.068;12.114;2023-06-10T01:02:06;8.52;;;2.03;;
61471;SDS011;47337;54.068;12.114;2023-06-10T01:04:32;5.30;;;1.52;;
61471;SDS011;47337;54.068;12.114;2023-06-10T01:10:12;5.07;;;1.63;;
61471;SDS011;47337;54.068;12.114;2023-06-10T01:14:52;8.25;;;2.17;;
61471;SDS011;47337;54.068;12.114;2023-06-10T01:17:20;9.50;;;1.95;;
61471;SDS011;47337;54.068;12.114;2023-06-10T01:19:52;9.00;;;2.03;;
61471;SDS011;47337;54.068;12.114;2023-06-10T01:22:19;7.97;;;1.77;;
61471;SDS011;47337;54.068;12.114;2023-06-10T01:24:45;7.60;;;1.65;;
61471;SDS011;47337;54.068;12.114;2023-06-10T01:27:12;9.07;;;2.03;;
61471;SDS011;47337;54.068;12.114;2023-06-10T01:29:43;8.15;;;2.35;;
61471;SDS011;47337;54.068;12.114;2023-06-10T01:32:23;5.72;;;2.00;;
61471;SDS011;47337;54.068;12.114;2023-06-10T01:34:50;5.75;;;1.48;;
61471;SDS011;47337;54.068;12.114;2023-06-10T01:37:17;6.97;;;1.67;;
61471;SDS011;47337;54.068;12.114;2023-06-10T01:39:43;8.85;;;2.65;;
61471;SDS011;47337;54.068;12.114;2023-06-10T01:42:10;5.68;;;1.73;;
61471;SDS011;47337;54.068;12.114;2023-06-10T01:44:35;6.07;;;1.63;;
61471;SDS011;47337;54.068;12.114;2023-06-10T01:47:00;8.35;;;2.15;;
61471;SDS011;47337;54.068;12.114;2023-06-10T01:49:26;3.85;;;1.27;;
61471;SDS011;47337;54.068;12.114;2023-06-10T01:51:51;8.00;;;1.65;;
61471;SDS011;47337;54.068;12.114;2023-06-10T01:54:17;6.78;;;1.80;;
61471;SDS011;47337;54.068;12.114;2023-06-10T01:56:42;7.38;;;1.98;;
61471;SDS011;47337;54.068;12.114;2023-06-10T01:59:07;5.60;;;1.92;;
61471;SDS011;47337;54.068;12.114;2023-06-10T02:01:33;4.20;;;2.10;;
61471;SDS011;47337;54.068;12.114;2023-06-10T02:03:58;8.45;;;1.80;;
61471;SDS011;47337;54.068;12.114;2023-06-10T02:06:23;8.50;;;2.05;;
61471;SDS011;47337;54.068;12.114;2023-06-10T02:08:49;10.95;;;1.75;;
61471;SDS011;47337;54.068;12.114;2023-06-10T02:11:14;5.90;;;1.98;;
61471;SDS011;47337;54.068;12.114;2023-06-10T02:13:39;7.93;;;2.50;;
61471;SDS011;47337;54.068;12.114;2023-06-10T02:16:04;5.72;;;1.92;;
61471;SDS011;47337;54.068;12.114;2023-06-10T02:18:30;4.50;;;1.55;;
61471;SDS011;47337;54.068;12.114;2023-06-10T02:20:56;5.65;;;1.75;;
61471;SDS011;47337;54.068;12.114;2023-06-10T02:23:23;4.80;;;1.80;;
61471;SDS011;47337;54.068;12.114;2023-06-10T02:25:49;8.10;;;1.75;;
61471;SDS011;47337;54.068;12.114;2023-06-10T02:28:14;6.57;;;1.90;;
61471;SDS011;47337;54.068;12.114;2023-06-10T02:30:40;5.18;;;1.52;;
61471;SDS011;47337;54.068;12.114;2023-06-10T02:33:06;9.52;;;2.03;;
61471;SDS011;47337;54.068;12.114;2023-06-10T02:35:37;10.73;;;2.13;;
61471;SDS011;47337;54.068;12.114;2023-06-10T02:38:04;4.80;;;1.98;;
61471;SDS011;47337;54.068;12.114;2023-06-10T02:40:30;4.63;;;1.15;;
61471;SDS011;47337;54.068;12.114;2023-06-10T02:42:56;5.10;;;1.52;;
61471;SDS011;47337;54.068;12.114;2023-06-10T02:45:21;6.97;;;1.52;;
61471;SDS011;47337;54.068;12.114;2023-06-10T02:47:46;3.78;;;1.50;;
61471;SDS011;47337;54.068;12.114;2023-06-10T02:50:16;5.07;;;1.52;;
61471;SDS011;47337;54.068;12.114;2023-06-10T02:52:42;7.68;;;2.25;;
61471;SDS011;47337;54.068;12.114;2023-06-10T02:55:07;5.53;;;1.77;;
61471;SDS011;47337;54.068;12.114;2023-06-10T02:57:35;7.63;;;2.00;;
61471;SDS011;47337;54.068;12.114;2023-06-10T03:00:00;7.30;;;2.30;;
61471;SDS011;47337;54.068;12.114;2023-06-10T03:02:26;5.18;;;1.65;;
61471;SDS011;47337;54.068;12.114;2023-06-10T03:04:54;6.43;;;1.50;;
61471;SDS011;47337;54.068;12.114;2023-06-10T03:07:20;4.03;;;1.30;;
61471;SDS011;47337;54.068;12.114;2023-06-10T03:09:45;6.38;;;2.20;;
61471;SDS011;47337;54.068;12.114;2023-06-10T03:12:11;7.07;;;1.55;;
61471;SDS011;47337;54.068;12.114;2023-06-10T03:14:36;5.55;;;1.80;;
61471;SDS011;47337;54.068;12.114;2023-06-10T03:17:03;4.43;;;1.60;;
61471;SDS011;47337;54.068;12.114;2023-06-10T03:19:29;5.50;;;1.50;;
61471;SDS011;47337;54.068;12.114;2023-06-10T03:21:57;7.03;;;1.60;;
61471;SDS011;47337;54.068;12.114;2023-06-10T03:24:23;4.38;;;2.08;;
61471;SDS011;47337;54.068;12.114;2023-06-10T03:26:50;11.27;;;2.17;;
61471;SDS011;47337;54.068;12.114;2023-06-10T03:29:17;6.18;;;1.73;;
61471;SDS011;47337;54.068;12.114;2023-06-10T03:31:43;4.93;;;1.67;;
61471;SDS011;47337;54.068;12.114;2023-06-10T03:34:08;7.60;;;1.60;;
61471;SDS011;47337;54.068;12.114;2023-06-10T03:36:33;5.60;;;1.73;;
61471;SDS011;47337;54.068;12.114;2023-06-10T03:38:58;8.82;;;2.33;;
61471;SDS011;47337;54.068;12.114;2023-06-10T03:41:23;10.30;;;2.10;;
61471;SDS011;47337;54.068;12.114;2023-06-10T03:43:51;8.40;;;1.88;;
61471;SDS011;47337;54.068;12.114;2023-06-10T03:46:16;5.43;;;1.40;;
61471;SDS011;47337;54.068;12.114;2023-06-10T03:48:42;5.38;;;1.50;;
61471;SDS011;47337;54.068;12.114;2023-06-10T03:51:08;4.55;;;1.40;;
61471;SDS011;47337;54.068;12.114;2023-06-10T03:53:35;5.05;;;1.27;;
61471;SDS011;47337;54.068;12.114;2023-06-10T03:56:03;7.25;;;1.73;;
61471;SDS011;47337;54.068;12.114;2023-06-10T03:58:28;2.83;;;1.27;;
61471;SDS011;47337;54.068;12.114;2023-06-10T04:00:56;4.85;;;1.60;;
61471;SDS011;47337;54.068;12.114;2023-06-10T04:03:21;6.45;;;2.05;;
61471;SDS011;47337;54.068;12.114;2023-06-10T04:05:47;4.78;;;1.40;;
61471;SDS011;47337;54.068;12.114;2023-06-10T04:08:13;10.30;;;1.95;;
61471;SDS011;47337;54.068;12.114;2023-06-10T04:10:38;5.05;;;1.58;;
61471;SDS011;47337;54.068;12.114;2023-06-10T04:13:03;6.70;;;1.60;;
61471;SDS011;47337;54.068;12.114;2023-06-10T04:15:29;5.00;;;1.42;;
61471;SDS011;47337;54.068;12.114;2023-06-10T04:17:54;6.80;;;1.92;;
61471;SDS011;47337;54.068;12.114;2023-06-10T04:20:20;4.20;;;1.33;;
61471;SDS011;47337;54.068;12.114;2023-06-10T04:22:45;5.18;;;1.52;;
61471;SDS011;47337;54.068;12.114;2023-06-10T04:25:11;6.80;;;2.17;;
61471;SDS011;47337;54.068;12.114;2023-06-10T04:27:36;5.57;;;1.60;;
61471;SDS011;47337;54.068;12.114;2023-06-10T04:30:04;6.15;;;1.50;;
61471;SDS011;47337;54.068;12.114;2023-06-10T04:32:30;8.32;;;1.73;;
61471;SDS011;47337;54.068;12.114;2023-06-10T04:34:59;6.13;;;1.70;;
61471;SDS011;47337;54.068;12.114;2023-06-10T04:37:24;4.93;;;1.42;;
61471;SDS011;47337;54.068;12.114;2023-06-10T04:39:50;4.78;;;1.65;;
61471;SDS011;47337;54.068;12.114;2023-06-10T04:42:17;5.82;;;1.92;;
61471;SDS011;47337;54.068;12.114;2023-06-10T04:44:42;4.65;;;1.60;;
61471;SDS011;47337;54.068;12.114;2023-06-10T04:47:10;5.13;;;1.90;;
61471;SDS011;47337;54.068;12.114;2023-06-10T04:49:35;5.22;;;1.92;;
61471;SDS011;47337;54.068;12.114;2023-06-10T04:52:03;4.38;;;1.75;;
61471;SDS011;47337;54.068;12.114;2023-06-10T04:54:32;8.93;;;1.95;;
61471;SDS011;47337;54.068;12.114;2023-06-10T04:56:57;7.10;;;2.00;;
61471;SDS011;47337;54.068;12.114;2023-06-10T04:59:22;4.82;;;1.55;;
61471;SDS011;47337;54.068;12.114;2023-06-10T05:01:48;6.00;;;1.73;;
61471;SDS011;47337;54.068;12.114;2023-06-10T05:04:13;5.78;;;1.83;;
61471;SDS011;47337;54.068;12.114;2023-06-10T05:06:38;6.80;;;1.88;;
61471;SDS011;47337;54.068;12.114;2023-06-10T05:09:05;6.05;;;1.55;;
61471;SDS011;47337;54.068;12.114;2023-06-10T05:11:31;4.22;;;1.90;;
61471;SDS011;47337;54.068;12.114;2023-06-10T05:13:56;4.63;;;1.40;;
61471;SDS011;47337;54.068;12.114;2023-06-10T05:16:21;5.13;;;2.35;;
61471;SDS011;47337;54.068;12.114;2023-06-10T05:18:47;4.55;;;1.63;;
61471;SDS011;47337;54.068;12.114;2023-06-10T05:21:14;4.40;;;1.48;;
61471;SDS011;47337;54.068;12.114;2023-06-10T05:23:42;3.70;;;1.60;;
61471;SDS011;47337;54.068;12.114;2023-06-10T05:26:08;6.05;;;1.90;;
61471;SDS011;47337;54.068;12.114;2023-06-10T05:28:33;5.00;;;1.40;;
61471;SDS011;47337;54.068;12.114;2023-06-10T05:30:58;6.35;;;2.10;;
61471;SDS011;47337;54.068;12.114;2023-06-10T05:33:23;9.57;;;2.28;;
61471;SDS011;47337;54.068;12.114;2023-06-10T05:35:49;4.88;;;1.85;;
61471;SDS011;47337;54.068;12.114;2023-06-10T05:38:14;4.53;;;1.70;;
61471;SDS011;47337;54.068;12.114;2023-06-10T05:40:39;5.30;;;1.95;;
61471;SDS011;47337;54.068;12.114;2023-06-10T05:43:05;6.68;;;1.80;;
61471;SDS011;47337;54.068;12.114;2023-06-10T05:45:30;4.45;;;2.08;;
61471;SDS011;47337;54.068;12.114;2023-06-10T05:47:55;4.70;;;1.95;;
61471;SDS011;47337;54.068;12.114;2023-06-10T05:50:23;8.05;;;1.63;;
61471;SDS011;47337;54.068;12.114;2023-06-10T05:52:49;9.27;;;3.08;;
61471;SDS011;47337;54.068;12.114;2023-06-10T05:55:14;6.35;;;1.92;;
61471;SDS011;47337;54.068;12.114;2023-06-10T05:57:41;4.47;;;1.65;;
61471;SDS011;47337;54.068;12.114;2023-06-10T06:00:06;6.20;;;2.38;;
61471;SDS011;47337;54.068;12.114;2023-06-10T06:02:32;6.97;;;2.15;;
61471;SDS011;47337;54.068;12.114;2023-06-10T06:05:00;10.05;;;2.17;;
61471;SDS011;47337;54.068;12.114;2023-06-10T06:07:29;5.68;;;2.13;;
61471;SDS011;47337;54.068;12.114;2023-06-10T06:09:54;7.53;;;2.30;;
61471;SDS011;47337;54.068;12.114;2023-06-10T06:12:19;6.38;;;2.03;;
61471;SDS011;47337;54.068;12.114;2023-06-10T06:14:45;6.78;;;1.90;;
61471;SDS011;47337;54.068;12.114;2023-06-10T06:17:14;6.70;;;2.33;;
61471;SDS011;47337;54.068;12.114;2023-06-10T06:19:39;8.68;;;1.77;;
61471;SDS011;47337;54.068;12.114;2023-06-10T06:22:04;4.80;;;1.83;;
61471;SDS011;47337;54.068;12.114;2023-06-10T06:24:30;5.35;;;1.85;;
61471;SDS011;47337;54.068;12.114;2023-06-10T06:26:55;6.97;;;1.90;;
61471;SDS011;47337;54.068;12.114;2023-06-10T06:29:20;6.95;;;2.00;;
61471;SDS011;47337;54.068;12.114;2023-06-10T06:31:46;4.18;;;1.88;;
61471;SDS011;47337;54.068;12.114;2023-06-10T06:34:11;8.18;;;2.22;;
61471;SDS011;47337;54.068;12.114;2023-06-10T06:36:36;6.38;;;2.20;;
61471;SDS011;47337;54.068;12.114;2023-06-10T06:39:02;7.90;;;2.65;;
61471;SDS011;47337;54.068;12.114;2023-06-10T06:41:27;6.22;;;1.77;;
61471;SDS011;47337;54.068;12.114;2023-06-10T06:43:53;5.60;;;2.60;;
61471;SDS011;47337;54.068;12.114;2023-06-10T06:46:19;7.35;;;1.58;;
61471;SDS011;47337;54.068;12.114;2023-06-10T06:48:46;7.95;;;2.45;;
61471;SDS011;47337;54.068;12.114;2023-06-10T06:51:11;4.05;;;2.10;;
61471;SDS011;47337;54.068;12.114;2023-06-10T06:53:37;7.30;;;2.28;;
61471;SDS011;47337;54.068;12.114;2023-06-10T06:56:07;5.97;;;2.15;;
61471;SDS011;47337;54.068;12.114;2023-06-10T06:58:32;6.18;;;1.95;;
61471;SDS011;47337;54.068;12.114;2023-06-10T07:00:58;9.98;;;2.83;;
61471;SDS011;47337;54.068;12.114;2023-06-10T07:03:23;6.00;;;2.42;;
61471;SDS011;47337;54.068;12.114;2023-06-10T07:05:48;9.85;;;2.63;;
61471;SDS011;47337;54.068;12.114;2023-06-10T07:08:13;6.90;;;2.33;;
61471;SDS011;47337;54.068;12.114;2023-06-10T07:10:39;8.15;;;2.42;;
61471;SDS011;47337;54.068;12.114;2023-06-10T07:13:04;7.93;;;2.08;;
61471;SDS011;47337;54.068;12.114;2023-06-10T07:15:29;9.25;;;2.08;;
61471;SDS011;47337;54.068;12.114;2023-06-10T07:17:55;3.90;;;1.95;;
61471;SDS011;47337;54.068;12.114;2023-06-10T07:20:20;7.32;;;2.85;;
61471;SDS011;47337;54.068;12.114;2023-06-10T07:22:46;5.10;;;2.03;;
61471;SDS011;47337;54.068;12.114;2023-06-10T07:25:11;6.00;;;2.72;;
61471;SDS011;47337;54.068;12.114;2023-06-10T07:27:38;8.63;;;2.55;;
61471;SDS011;47337;54.068;12.114;2023-06-10T07:30:04;5.03;;;2.38;;
61471;SDS011;47337;54.068;12.114;2023-06-10T07:32:31;9.13;;;2.30;;
61471;SDS011;47337;54.068;12.114;2023-06-10T07:34:56;6.45;;;2.78;;
61471;SDS011;47337;54.068;12.114;2023-06-10T07:37:21;8.85;;;2.67;;
61471;SDS011;47337;54.068;12.114;2023-06-10T07:39:46;6.40;;;2.80;;
61471;SDS011;47337;54.068;12.114;2023-06-10T07:42:12;6.00;;;2.22;;
61471;SDS011;47337;54.068;12.114;2023-06-10T07:44:37;8.85;;;2.88;;
61471;SDS011;47337;54.068;12.114;2023-06-10T07:47:02;7.35;;;2.65;;
61471;SDS011;47337;54.068;12.114;2023-06-10T07:49:30;5.95;;;2.50;;
61471;SDS011;47337;54.068;12.114;2023-06-10T07:51:55;7.05;;;2.65;;
61471;SDS011;47337;54.068;12.114;2023-06-10T07:54:23;7.90;;;3.03;;
61471;SDS011;47337;54.068;12.114;2023-06-10T07:56:48;8.55;;;2.95;;
61471;SDS011;47337;54.068;12.114;2023-06-10T07:59:20;6.38;;;2.88;;
61471;SDS011;47337;54.068;12.114;2023-06-10T08:01:47;9.02;;;2.67;;
61471;SDS011;47337;54.068;12.114;2023-06-10T08:04:12;5.13;;;2.58;;
61471;SDS011;47337;54.068;12.114;2023-06-10T08:06:38;6.17;;;2.67;;
61471;SDS011;47337;54.068;12.114;2023-06-10T08:09:03;5.78;;;2.67;;
61471;SDS011;47337;54.068;12.114;2023-06-10T08:11:28;5.90;;;2.38;;
61471;SDS011;47337;54.068;12.114;2023-06-10T08:13:54;6.53;;;2.60;;
61471;SDS011;47337;54.068;12.114;2023-06-10T08:16:20;6.72;;;2.80;;
61471;SDS011;47337;54.068;12.114;2023-06-10T08:18:45;7.18;;;2.53;;
61471;SDS011;47337;54.068;12.114;2023-06-10T08:21:10;4.47;;;2.63;;
61471;SDS011;47337;54.068;12.114;2023-06-10T08:23:35;6.63;;;3.17;;
61471;SDS011;47337;54.068;12.114;2023-06-10T08:26:03;8.50;;;3.15;;
61471;SDS011;47337;54.068;12.114;2023-06-10T08:28:28;4.90;;;2.70;;
61471;SDS011;47337;54.068;12.114;2023-06-10T08:30:53;6.65;;;2.70;;
61471;SDS011;47337;54.068;12.114;2023-06-10T08:33:18;7.93;;;2.70;;
61471;SDS011;47337;54.068;12.114;2023-06-10T08:35:44;5.40;;;2.63;;
61471;SDS011;47337;54.068;12.114;2023-06-10T08:38:09;6.85;;;3.00;;
61471;SDS011;47337;54.068;12.114;2023-06-10T08:40:34;5.85;;;2.42;;
61471;SDS011;47337;54.068;12.114;2023-06-10T08:43:06;6.63;;;2.50;;
61471;SDS011;47337;54.068;12.114;2023-06-10T08:45:32;9.57;;;2.53;;
61471;SDS011;47337;54.068;12.114;2023-06-10T08:48:00;9.88;;;2.88;;
61471;SDS011;47337;54.068;12.114;2023-06-10T08:50:32;7.88;;;2.75;;
61471;SDS011;47337;54.068;12.114;2023-06-10T08:52:59;9.27;;;3.00;;
61471;SDS011;47337;54.068;12.114;2023-06-10T08:55:29;9.70;;;2.85;;
61471;SDS011;47337;54.068;12.114;2023-06-10T08:57:55;9.07;;;3.05;;
61471;SDS011;47337;54.068;12.114;2023-06-10T09:00:23;7.97;;;2.97;;
61471;SDS011;47337;54.068;12.114;2023-06-10T09:02:49;5.10;;;2.35;;
61471;SDS011;47337;54.068;12.114;2023-06-10T09:05:15;9.73;;;3.30;;
61471;SDS011;47337;54.068;12.114;2023-06-10T09:07:41;5.65;;;2.58;;
61471;SDS011;47337;54.068;12.114;2023-06-10T09:10:06;9.20;;;2.65;;
61471;SDS011;47337;54.068;12.114;2023-06-10T09:12:32;4.85;;;2.53;;
61471;SDS011;47337;54.068;12.114;2023-06-10T09:14:58;7.40;;;2.78;;
61471;SDS011;47337;54.068;12.114;2023-06-10T09:17:26;8.60;;;2.78;;
61471;SDS011;47337;54.068;12.114;2023-06-10T09:19:52;4.55;;;2.72;;
61471;SDS011;47337;54.068;12.114;2023-06-10T09:22:22;6.15;;;2.40;;
61471;SDS011;47337;54.068;12.114;2023-06-10T09:24:51;9.30;;;3.05;;
61471;SDS011;47337;54.068;12.114;2023-06-10T09:27:17;6.38;;;2.75;;
61471;SDS011;47337;54.068;12.114;2023-06-10T09:29:51;6.10;;;2.60;;
61471;SDS011;47337;54.068;12.114;2023-06-10T09:32:17;8.07;;;3.08;;
61471;SDS011;47337;54.068;12.114;2023-06-10T09:34:43;7.00;;;2.88;;
61471;SDS011;47337;54.068;12.114;2023-06-10T09:37:08;9.15;;;2.80;;
61471;SDS011;47337;54.068;12.114;2023-06-10T09:39:39;6.63;;;2.33;;
61471;SDS011;47337;54.068;12.114;2023-06-10T09:42:15;5.90;;;2.70;;
61471;SDS011;47337;54.068;12.114;2023-06-10T09:44:41;8.60;;;2.75;;
61471;SDS011;47337;54.068;12.114;2023-06-10T09:47:06;5.45;;;3.00;;
61471;SDS011;47337;54.068;12.114;2023-06-10T09:49:31;8.25;;;3.05;;
61471;SDS011;47337;54.068;12.114;2023-06-10T09:51:58;8.95;;;3.38;;
61471;SDS011;47337;54.068;12.114;2023-06-10T09:54:24;10.20;;;3.50;;
61471;SDS011;47337;54.068;12.114;2023-06-10T09:56:56;5.75;;;2.95;;
61471;SDS011;47337;54.068;12.114;2023-06-10T09:59:29;7.38;;;2.83;;
61471;SDS011;47337;54.068;12.114;2023-06-10T10:01:58;8.23;;;2.67;;
61471;SDS011;47337;54.068;12.114;2023-06-10T10:04:25;7.85;;;3.10;;
61471;SDS011;47337;54.068;12.114;2023-06-10T10:06:51;6.80;;;3.20;;
61471;SDS011;47337;54.068;12.114;2023-06-10T10:09:17;7.22;;;2.80;;
61471;SDS011;47337;54.068;12.114;2023-06-10T10:11:42;8.85;;;2.80;;
61471;SDS011;47337;54.068;12.114;2023-06-10T10:14:10;8.80;;;2.90;;
61471;SDS011;47337;54.068;12.114;2023-06-10T10:16:36;8.23;;;3.10;;
61471;SDS011;47337;54.068;12.114;2023-06-10T10:19:30;6.05;;;2.45;;
61471;SDS011;47337;54.068;12.114;2023-06-10T10:22:04;5.43;;;3.17;;
61471;SDS011;47337;54.068;12.114;2023-06-10T10:24:32;7.85;;;2.83;;
61471;SDS011;47337;54.068;12.114;2023-06-10T10:26:58;7.50;;;2.85;;
61471;SDS011;47337;54.068;12.114;2023-06-10T10:29:30;4.47;;;3.08;;
61471;SDS011;47337;54.068;12.114;2023-06-10T10:31:56;7.55;;;3.28;;
61471;SDS011;47337;54.068;12.114;2023-06-10T10:37:09;9.07;;;3.03;;
61471;SDS011;47337;54.068;12.114;2023-06-10T10:39:34;8.60;;;2.80;;
61471;SDS011;47337;54.068;12.114;2023-06-10T10:42:03;5.75;;;3.13;;
61471;SDS011;47337;54.068;12.114;2023-06-10T10:44:29;6.80;;;2.90;;
61471;SDS011;47337;54.068;12.114;2023-06-10T10:46:54;6.45;;;3.15;;
61471;SDS011;47337;54.068;12.114;2023-06-10T10:49:20;6.60;;;3.00;;
61471;SDS011;47337;54.068;12.114;2023-06-10T10:52:10;4.47;;;2.70;;
61471;SDS011;47337;54.068;12.114;2023-06-10T10:54:35;6.38;;;2.95;;
61471;SDS011;47337;54.068;12.114;2023-06-10T11:02:18;7.90;;;3.33;;
61471;SDS011;47337;54.068;12.114;2023-06-10T11:04:46;8.70;;;2.95;;
61471;SDS011;47337;54.068;12.114;2023-06-10T11:07:12;6.53;;;2.70;;
61471;SDS011;47337;54.068;12.114;2023-06-10T11:09:42;7.60;;;3.08;;
61471;SDS011;47337;54.068;12.114;2023-06-10T11:12:24;8.38;;;3.10;;
61471;SDS011;47337;54.068;12.114;2023-06-10T11:14:56;4.03;;;2.55;;
61471;SDS011;47337;54.068;12.114;2023-06-10T11:17:21;10.88;;;3.85;;
61471;SDS011;47337;54.068;12.114;2023-06-10T11:19:46;6.47;;;2.95;;
61471;SDS011;47337;54.068;12.114;2023-06-10T11:22:17;5.13;;;3.13;;
61471;SDS011;47337;54.068;12.114;2023-06-10T11:24:52;4.93;;;3.00;;
61471;SDS011;47337;54.068;12.114;2023-06-10T11:27:18;4.80;;;2.88;;
61471;SDS011;47337;54.068;12.114;2023-06-10T11:32:25;6.28;;;3.10;;
61471;SDS011;47337;54.068;12.114;2023-06-10T11:34:53;5.55;;;2.78;;
61471;SDS011;47337;54.068;12.114;2023-06-10T11:37:20;6.28;;;3.20;;
61471;SDS011;47337;54.068;12.114;2023-06-10T11:39:45;6.55;;;3.35;;
61471;SDS011;47337;54.068;12.114;2023-06-10T11:42:11;6.32;;;2.70;;
61471;SDS011;47337;54.068;12.114;2023-06-10T11:44:36;5.78;;;3.03;;
61471;SDS011;47337;54.068;12.114;2023-06-10T11:47:02;5.25;;;2.88;;
61471;SDS011;47337;54.068;12.114;2023-06-10T11:49:28;5.25;;;2.78;;
61471;SDS011;47337;54.068;12.114;2023-06-10T11:51:55;8.32;;;2.90;;
61471;SDS011;47337;54.068;12.114;2023-06-10T11:54:21;5.63;;;2.70;;
61471;SDS011;47337;54.068;12.114;2023-06-10T11:56:47;5.35;;;2.70;;
61471;SDS011;47337;54.068;12.114;2023-06-10T11:59:13;7.28;;;3.10;;
61471;SDS011;47337;54.068;12.114;2023-06-10T12:01:44;5.38;;;3.08;;
61471;SDS011;47337;54.068;12.114;2023-06-10T12:04:10;8.15;;;2.97;;
61471;SDS011;47337;54.068;12.114;2023-06-10T12:09:18;5.17;;;3.00;;
61471;SDS011;47337;54.068;12.114;2023-06-10T12:11:44;7.57;;;3.28;;
61471;SDS011;47337;54.068;12.114;2023-06-10T12:14:09;5.90;;;3.17;;
61471;SDS011;47337;54.068;12.114;2023-06-10T12:16:34;8.48;;;3.28;;
61471;SDS011;47337;54.068;12.114;2023-06-10T12:19:03;9.23;;;2.80;;
61471;SDS011;47337;54.068;12.114;2023-06-10T12:21:32;3.97;;;2.90;;
61471;SDS011;47337;54.068;12.114;2023-06-10T12:26:42;7.15;;;3.13;;
61471;SDS011;47337;54.068;12.114;2023-06-10T12:34:19;5.50;;;2.72;;
61471;SDS011;47337;54.068;12.114;2023-06-10T12:36:48;11.73;;;3.35;;
61471;SDS011;47337;54.068;12.114;2023-06-10T12:39:13;4.45;;;3.00;;
61471;SDS011;47337;54.068;12.114;2023-06-10T12:41:39;9.30;;;3.00;;
61471;SDS011;47337;54.068;12.114;2023-06-10T12:44:05;6.97;;;2.88;;
61471;SDS011;47337;54.068;12.114;2023-06-10T12:46:36;5.00;;;2.97;;
61471;SDS011;47337;54.068;12.114;2023-06-10T12:49:02;5.40;;;2.80;;
61471;SDS011;47337;54.068;12.114;2023-06-10T12:51:27;5.90;;;2.65;;
61471;SDS011;47337;54.068;12.114;2023-06-10T12:53:52;8.63;;;2.92;;
61471;SDS011;47337;54.068;12.114;2023-06-10T12:56:18;4.07;;;2.58;;
61471;SDS011;47337;54.068;12.114;2023-06-10T12:58:43;6.07;;;2.80;;
61471;SDS011;47337;54.068;12.114;2023-06-10T13:01:08;7.70;;;2.70;;
61471;SDS011;47337;54.068;12.114;2023-06-10T13:03:33;4.97;;;2.55;;
61471;SDS011;47337;54.068;12.114;2023-06-10T13:06:03;5.20;;;2.78;;
61471;SDS011;47337;54.068;12.114;2023-06-10T13:08:31;5.80;;;3.00;;
61471;SDS011;47337;54.068;12.114;2023-06-10T13:10:57;4.40;;;2.80;;
61471;SDS011;47337;54.068;12.114;2023-06-10T13:13:22;5.78;;;3.13;;
61471;SDS011;47337;54.068;12.114;2023-06-10T13:15:48;5.28;;;3.08;;
61471;SDS011;47337;54.068;12.114;2023-06-10T13:18:15;7.40;;;2.90;;
61471;SDS011;47337;54.068;12.114;2023-06-10T13:20:40;4.88;;;2.83;;
61471;SDS011;47337;54.068;12.114;2023-06-10T13:23:05;5.35;;;2.88;;
61471;SDS011;47337;54.068;12.114;2023-06-10T13:25:30;5.18;;;2.97;;
61471;SDS011;47337;54.068;12.114;2023-06-10T13:27:56;7.30;;;3.17;;
61471;SDS011;47337;54.068;12.114;2023-06-10T13:30:23;7.60;;;2.78;;
61471;SDS011;47337;54.068;12.114;2023-06-10T13:32:48;5.63;;;2.75;;
61471;SDS011;47337;54.068;12.114;2023-06-10T13:35:14;7.82;;;3.22;;
61471;SDS011;47337;54.068;12.114;2023-06-10T13:37:39;4.90;;;2.83;;
61471;SDS011;47337;54.068;12.114;2023-06-10T13:40:05;5.18;;;2.70;;
61471;SDS011;47337;54.068;12.114;2023-06-10T13:42:30;6.95;;;3.00;;
61471;SDS011;47337;54.068;12.114;2023-06-10T13:44:55;6.43;;;2.78;;
61471;SDS011;47337;54.068;12.114;2023-06-10T13:47:21;5.50;;;2.70;;
61471;SDS011;47337;54.068;12.114;2023-06-10T13:49:46;6.97;;;2.55;;
61471;SDS011;47337;54.068;12.114;2023-06-10T13:52:12;5.10;;;2.70;;
61471;SDS011;47337;54.068;12.114;2023-06-10T13:54:39;4.93;;;2.30;;
61471;SDS011;47337;54.068;12.114;2023-06-10T13:57:05;11.65;;;3.13;;
61471;SDS011;47337;54.068;12.114;2023-06-10T13:59:30;7.30;;;2.85;;
61471;SDS011;47337;54.068;12.114;2023-06-10T14:01:57;5.82;;;2.75;;
61471;SDS011;47337;54.068;12.114;2023-06-10T14:04:23;6.65;;;3.05;;
61471;SDS011;47337;54.068;12.114;2023-06-10T14:06:48;7.72;;;2.95;;
61471;SDS011;47337;54.068;12.114;2023-06-10T14:09:14;4.13;;;2.45;;
61471;SDS011;47337;54.068;12.114;2023-06-10T14:11:39;5.85;;;2.60;;
61471;SDS011;47337;54.068;12.114;2023-06-10T14:14:07;6.30;;;2.63;;
61471;SDS011;47337;54.068;12.114;2023-06-10T14:16:32;7.68;;;2.97;;
61471;SDS011;47337;54.068;12.114;2023-06-10T14:18:57;6.03;;;2.90;;
61471;SDS011;47337;54.068;12.114;2023-06-10T14:21:25;5.32;;;2.78;;
61471;SDS011;47337;54.068;12.114;2023-06-10T14:23:50;4.55;;;2.78;;
61471;SDS011;47337;54.068;12.114;2023-06-10T14:26:18;4.85;;;2.60;;
61471;SDS011;47337;54.068;12.114;2023-06-10T14:28:43;6.20;;;3.10;;
61471;SDS011;47337;54.068;12.114;2023-06-10T14:31:11;9.60;;;2.95;;
61471;SDS011;47337;54.068;12.114;2023-06-10T14:33:36;4.75;;;2.50;;
61471;SDS011;47337;54.068;12.114;2023-06-10T14:36:01;7.25;;;2.90;;
61471;SDS011;47337;54.068;12.114;2023-06-10T14:38:29;5.93;;;2.58;;
61471;SDS011;47337;54.068;12.114;2023-06-10T14:40:57;4.50;;;2.58;;
61471;SDS011;47337;54.068;12.114;2023-06-10T14:43:25;5.93;;;2.70;;
61471;SDS011;47337;54.068;12.114;2023-06-10T14:45:51;6.85;;;2.83;;
61471;SDS011;47337;54.068;12.114;2023-06-10T14:48:18;6.10;;;2.65;;
61471;SDS011;47337;54.068;12.114;2023-06-10T14:50:43;10.68;;;2.88;;
61471;SDS011;47337;54.068;12.114;2023-06-10T14:53:11;7.45;;;2.60;;
61471;SDS011;47337;54.068;12.114;2023-06-10T14:55:39;5.80;;;2.38;;